Sinclair, Wyoming
Current Conditions -  °F | °C
As of 9:53 AM on Wednesday 22 Oct 2014 (Local Time) from KRWL Reporting Station
Clear Clear  
Wind Chill: 32°   Ceiling: Unl
Heat Index: 41°   Visibility: 10mi
Dew Point: 27°   Wind: 18mph
Humidity: 57%   Direction: 250°WSW
Pressure: 30.2"   Gusts: NA
Location:  41.77°N, 107.11°W
Report Text: KRWL 221553Z AUTO 25016KT 10SM CLR 05/M03 A3020 RMK AO2 SLP193 T00501028
Loading
Personal Weather Stations






























Interactive Weather Map
Tropical Storm Tracking
New forecast layout! Learn more

10-Day Weather Forecast

Advertisements
Track Severe Weather on mobile